Time,TemperatureF,DewpointF,PressureIn,WindDirection,WindDirectionDegrees,WindSpeedMPH,WindSpeedGustMPH,Humidity,HourlyPrecipIn,Conditions,Clouds,dailyrainin,SoftwareType,DateUTC
2013-12-13 00:04:00,12.8,5.2,30.05,SSW,208,1.0,5.0,71,0.00,,CLR,0.00,VWS V14.00,2013-12-13 05:04:00,
2013-12-13 00:05:00,13.0,5.4,30.05,SW,229,3.0,3.0,71,0.00,,CLR,0.00,VWS V14.00,2013-12-13 05:05:00,
2013-12-13 00:10:00,12.9,5.0,30.04,SW,225,2.0,4.0,70,0.00,,CLR,0.00,VWS V14.00,2013-12-13 05:10:00,
2013-12-13 00:15:00,13.1,5.5,30.03,SW,225,1.0,4.0,71,0.00,,CLR,0.00,VWS V14.00,2013-12-13 05:15:00,
2013-12-13 00:20:00,13.1,5.5,30.03,SW,221,2.0,4.0,71,0.00,,CLR,0.00,VWS V14.00,2013-12-13 05:20:00,
2013-12-13 00:24:00,13.3,5.7,30.03,SSW,210,3.0,5.0,71,0.00,,CLR,0.00,VWS V14.00,2013-12-13 05:24:00,
2013-12-13 00:29:00,13.3,5.7,30.03,SSW,210,2.0,5.0,71,0.00,,CLR,0.00,VWS V14.00,2013-12-13 05:29:00,
2013-12-13 00:34:00,13.4,5.8,30.02,SSW,212,2.0,5.0,71,0.00,,CLR,0.00,VWS V14.00,2013-12-13 05:34:00,
2013-12-13 00:39:00,13.4,5.8,30.02,SSW,213,0.0,5.0,71,0.00,,CLR,0.00,VWS V14.00,2013-12-13 05:39:00,
2013-12-13 00:44:00,13.6,6.0,30.02,SSW,213,1.0,5.0,71,0.00,,CLR,0.00,VWS V14.00,2013-12-13 05:44:00,
2013-12-13 00:49:00,13.9,6.2,30.02,SSW,213,2.0,5.0,71,0.00,,CLR,0.00,VWS V14.00,2013-12-13 05:49:00,
2013-12-13 00:54:00,14.1,6.4,30.02,WSW,240,6.0,6.0,71,0.00,,CLR,0.00,VWS V14.00,2013-12-13 05:54:00,
2013-12-13 00:59:00,14.6,6.9,30.01,SW,234,1.0,6.0,71,0.00,,CLR,0.00,VWS V14.00,2013-12-13 05:59:00,
2013-12-13 01:04:00,14.8,6.8,30.01,SW,231,2.0,10.0,70,0.00,,CLR,0.00,VWS V14.00,2013-12-13 06:04:00,
2013-12-13 01:09:00,14.7,6.4,30.01,West,272,2.0,10.0,69,0.00,,CLR,0.00,VWS V14.00,2013-12-13 06:09:00,
2013-12-13 01:14:00,14.9,6.6,30.01,West,264,3.0,10.0,69,0.00,,CLR,0.00,VWS V14.00,2013-12-13 06:14:00,
2013-12-13 01:19:00,14.9,6.6,30.00,West,261,2.0,10.0,69,0.00,,CLR,0.00,VWS V14.00,2013-12-13 06:19:00,
2013-12-13 01:24:00,14.9,6.6,30.01,WSW,240,2.0,10.0,69,0.00,,CLR,0.00,VWS V14.00,2013-12-13 06:24:00,
2013-12-13 01:29:00,14.9,6.3,30.01,SW,217,2.0,10.0,68,0.00,,CLR,0.00,VWS V14.00,2013-12-13 06:29:00,
2013-12-13 01:34:00,15.1,6.5,30.01,South,188,2.0,7.0,68,0.00,,CLR,0.00,VWS V14.00,2013-12-13 06:34:00,
2013-12-13 01:39:00,15.1,6.5,30.00,South,183,3.0,7.0,68,0.00,,CLR,0.00,VWS V14.00,2013-12-13 06:39:00,
2013-12-13 01:44:00,15.1,6.5,30.01,SSW,194,2.0,7.0,68,0.00,,CLR,0.00,VWS V14.00,2013-12-13 06:44:00,
2013-12-13 01:49:00,15.1,6.5,30.01,WNW,290,3.0,7.0,68,0.00,,CLR,0.00,VWS V14.00,2013-12-13 06:49:00,
2013-12-13 01:54:00,15.1,6.5,30.01,WSW,252,2.0,7.0,68,0.00,,CLR,0.00,VWS V14.00,2013-12-13 06:54:00,
2013-12-13 01:59:00,15.1,6.5,30.01,SW,225,1.0,7.0,68,0.00,,CLR,0.00,VWS V14.00,2013-12-13 06:59:00,
2013-12-13 02:04:00,15.1,6.5,30.01,NW,305,2.0,5.0,68,0.00,,CLR,0.00,VWS V14.00,2013-12-13 07:04:00,
2013-12-13 02:09:00,15.1,6.5,30.01,West,272,2.0,5.0,68,0.00,,CLR,0.00,VWS V14.00,2013-12-13 07:09:00,
2013-12-13 02:14:00,15.1,6.5,30.01,West,269,2.0,5.0,68,0.00,,CLR,0.00,VWS V14.00,2013-12-13 07:14:00,
2013-12-13 02:19:00,15.1,6.5,30.01,SSW,201,2.0,7.0,68,0.00,,CLR,0.00,VWS V14.00,2013-12-13 07:19:00,
2013-12-13 02:24:00,15.1,6.5,30.01,West,276,2.0,7.0,68,0.00,,CLR,0.00,VWS V14.00,2013-12-13 07:24:00,
2013-12-13 02:29:00,15.1,6.5,30.01,West,271,4.0,7.0,68,0.00,,CLR,0.00,VWS V14.00,2013-12-13 07:29:00,
2013-12-13 02:34:00,14.9,6.3,30.01,WSW,250,3.0,5.0,68,0.00,,CLR,0.00,VWS V14.00,2013-12-13 07:34:00,
2013-12-13 02:39:00,14.9,6.3,30.01,WSW,251,2.0,5.0,68,0.00,,CLR,0.00,VWS V14.00,2013-12-13 07:39:00,
2013-12-13 02:44:00,14.9,6.3,30.01,WSW,253,1.0,5.0,68,0.00,,CLR,0.00,VWS V14.00,2013-12-13 07:44:00,
2013-12-13 02:49:00,14.9,6.3,30.00,WSW,251,4.0,7.0,68,0.00,,CLR,0.00,VWS V14.00,2013-12-13 07:49:00,
2013-12-13 02:54:00,14.7,6.1,30.00,West,267,1.0,7.0,68,0.00,,CLR,0.00,VWS V14.00,2013-12-13 07:54:00,
2013-12-13 02:59:00,14.7,6.1,30.00,West,271,2.0,7.0,68,0.00,,CLR,0.00,VWS V14.00,2013-12-13 07:59:00,
2013-12-13 03:04:00,14.6,6.0,30.00,WSW,257,2.0,3.0,68,0.00,,CLR,0.00,VWS V14.00,2013-12-13 08:04:00,
2013-12-13 03:09:00,14.4,6.1,29.99,WSW,257,1.0,5.0,69,0.00,,CLR,0.00,VWS V14.00,2013-12-13 08:09:00,
2013-12-13 03:14:00,14.4,6.4,30.00,WNW,290,3.0,6.0,70,0.00,,CLR,0.00,VWS V14.00,2013-12-13 08:14:00,
2013-12-13 03:19:00,14.4,6.1,29.99,WNW,284,3.0,6.0,69,0.00,,CLR,0.00,VWS V14.00,2013-12-13 08:19:00,
2013-12-13 03:24:00,14.4,6.1,29.99,West,274,1.0,6.0,69,0.00,,CLR,0.00,VWS V14.00,2013-12-13 08:24:00,
2013-12-13 03:29:00,14.2,5.9,29.99,SW,215,4.0,8.0,69,0.00,,CLR,0.00,VWS V14.00,2013-12-13 08:29:00,
2013-12-13 03:34:00,14.2,5.9,29.98,WSW,256,2.0,5.0,69,0.00,,CLR,0.00,VWS V14.00,2013-12-13 08:34:00,
2013-12-13 03:39:00,14.2,5.9,29.99,WNW,282,4.0,5.0,69,0.00,,CLR,0.00,VWS V14.00,2013-12-13 08:39:00,
2013-12-13 03:44:00,14.2,5.9,29.99,West,278,4.0,5.0,69,0.00,,CLR,0.00,VWS V14.00,2013-12-13 08:44:00,
2013-12-13 03:49:00,14.2,5.9,29.99,WSW,237,1.0,5.0,69,0.00,,CLR,0.00,VWS V14.00,2013-12-13 08:49:00,
2013-12-13 03:54:00,14.3,6.0,29.98,WSW,239,2.0,5.0,69,0.00,,CLR,0.00,VWS V14.00,2013-12-13 08:54:00,
2013-12-13 03:59:00,14.1,5.8,29.98,SW,234,2.0,5.0,69,0.00,,CLR,0.00,VWS V14.00,2013-12-13 08:59:00,
2013-12-13 04:04:00,14.1,5.8,29.98,SW,234,2.0,3.0,69,0.00,,CLR,0.00,VWS V14.00,2013-12-13 09:04:00,
2013-12-13 04:09:00,13.9,5.6,29.98,SW,235,1.0,4.0,69,0.00,,CLR,0.00,VWS V14.00,2013-12-13 09:09:00,
2013-12-13 04:14:00,14.1,5.8,29.98,WSW,250,1.0,6.0,69,0.00,,CLR,0.00,VWS V14.00,2013-12-13 09:14:00,
2013-12-13 04:19:00,14.1,5.8,29.99,WSW,244,1.0,6.0,69,0.00,,CLR,0.00,VWS V14.00,2013-12-13 09:19:00,
2013-12-13 04:24:00,14.1,5.8,29.99,SW,236,4.0,6.0,69,0.00,,CLR,0.00,VWS V14.00,2013-12-13 09:24:00,
2013-12-13 04:29:00,14.1,5.8,29.99,SW,230,2.0,7.0,69,0.00,,CLR,0.00,VWS V14.00,2013-12-13 09:29:00,
2013-12-13 04:34:00,14.1,6.1,29.98,SW,231,2.0,3.0,70,0.00,,CLR,0.00,VWS V14.00,2013-12-13 09:34:00,
2013-12-13 04:39:00,14.1,6.1,29.98,SW,235,3.0,4.0,70,0.00,,CLR,0.00,VWS V14.00,2013-12-13 09:39:00,
2013-12-13 04:44:00,14.1,6.1,29.99,SW,233,3.0,4.0,70,0.00,,CLR,0.00,VWS V14.00,2013-12-13 09:44:00,
2013-12-13 04:49:00,14.1,6.1,29.99,SW,236,2.0,4.0,70,0.00,,CLR,0.00,VWS V14.00,2013-12-13 09:49:00,
2013-12-13 04:54:00,14.2,6.2,29.98,SW,232,1.0,4.0,70,0.00,,CLR,0.00,VWS V14.00,2013-12-13 09:54:00,
2013-12-13 04:59:00,14.2,6.2,29.99,SW,220,2.0,5.0,70,0.00,,CLR,0.00,VWS V14.00,2013-12-13 09:59:00,
2013-12-13 05:04:00,14.4,6.4,29.98,SW,227,1.0,4.0,70,0.00,,CLR,0.00,VWS V14.00,2013-12-13 10:04:00,
2013-12-13 05:09:00,14.4,6.1,29.99,SW,222,1.0,6.0,69,0.00,,CLR,0.00,VWS V14.00,2013-12-13 10:09:00,
2013-12-13 05:14:00,14.4,6.4,29.99,SW,220,1.0,6.0,70,0.00,,CLR,0.00,VWS V14.00,2013-12-13 10:14:00,
2013-12-13 05:19:00,14.4,6.4,29.99,WNW,282,2.0,6.0,70,0.00,,CLR,0.00,VWS V14.00,2013-12-13 10:19:00,
2013-12-13 05:24:00,14.4,6.4,29.99,SSW,202,2.0,6.0,70,0.00,,CLR,0.00,VWS V14.00,2013-12-13 10:24:00,
2013-12-13 05:29:00,14.4,6.4,29.99,SSW,208,2.0,6.0,70,0.00,,CLR,0.00,VWS V14.00,2013-12-13 10:29:00,
2013-12-13 05:34:00,14.4,6.4,29.99,SSW,205,1.0,5.0,70,0.00,,CLR,0.00,VWS V14.00,2013-12-13 10:34:00,
2013-12-13 05:39:00,14.4,6.4,30.00,SSW,205,1.0,5.0,70,0.00,,CLR,0.00,VWS V14.00,2013-12-13 10:39:00,
2013-12-13 05:44:00,14.4,6.4,29.99,SSW,205,2.0,5.0,70,0.00,,CLR,0.00,VWS V14.00,2013-12-13 10:44:00,
2013-12-13 05:49:00,14.4,6.4,30.00,SW,219,4.0,6.0,70,0.00,,CLR,0.00,VWS V14.00,2013-12-13 10:49:00,
2013-12-13 05:54:00,14.6,6.6,29.99,SW,219,1.0,6.0,70,0.00,,CLR,0.00,VWS V14.00,2013-12-13 10:54:00,
2013-12-13 05:59:00,14.6,6.6,29.99,SW,223,3.0,6.0,70,0.00,,CLR,0.00,VWS V14.00,2013-12-13 10:59:00,
2013-12-13 06:04:00,14.6,6.3,29.99,SW,223,1.0,4.0,69,0.00,,CLR,0.00,VWS V14.00,2013-12-13 11:04:00,
2013-12-13 06:09:00,14.8,6.8,30.00,SSW,210,2.0,7.0,70,0.00,,CLR,0.00,VWS V14.00,2013-12-13 11:09:00,
2013-12-13 06:14:00,14.7,6.4,30.00,SSW,210,3.0,7.0,69,0.00,,CLR,0.00,VWS V14.00,2013-12-13 11:14:00,
2013-12-13 06:19:00,14.9,6.9,30.00,SW,223,2.0,7.0,70,0.00,,CLR,0.00,VWS V14.00,2013-12-13 11:19:00,
2013-12-13 06:24:00,14.9,6.9,30.00,SW,228,2.0,9.0,70,0.00,,CLR,0.00,VWS V14.00,2013-12-13 11:24:00,
2013-12-13 06:29:00,15.1,6.8,30.00,SW,215,3.0,9.0,69,0.00,,CLR,0.00,VWS V14.00,2013-12-13 11:29:00,
2013-12-13 06:34:00,15.1,6.8,30.00,SW,214,2.0,5.0,69,0.00,,CLR,0.00,VWS V14.00,2013-12-13 11:34:00,
2013-12-13 06:39:00,15.1,6.8,30.00,SW,214,3.0,6.0,69,0.00,,CLR,0.00,VWS V14.00,2013-12-13 11:39:00,
2013-12-13 06:44:00,15.1,6.8,30.00,SW,216,1.0,7.0,69,0.00,,CLR,0.00,VWS V14.00,2013-12-13 11:44:00,
2013-12-13 06:49:00,15.2,6.9,30.00,WSW,239,2.0,11.0,69,0.00,,CLR,0.00,VWS V14.00,2013-12-13 11:49:00,
2013-12-13 06:54:00,15.4,7.1,30.00,SW,228,1.0,11.0,69,0.00,,CLR,0.00,VWS V14.00,2013-12-13 11:54:00,
2013-12-13 06:59:00,15.4,7.1,30.00,SSW,211,4.0,11.0,69,0.00,,CLR,0.00,VWS V14.00,2013-12-13 11:59:00,
2013-12-13 07:04:00,15.4,7.4,30.00,WSW,241,2.0,8.0,70,0.00,,CLR,0.00,VWS V14.00,2013-12-13 12:04:00,
2013-12-13 07:09:00,15.7,7.3,30.00,WSW,239,4.0,8.0,69,0.00,,CLR,0.00,VWS V14.00,2013-12-13 12:09:00,
2013-12-13 07:14:00,15.9,7.5,30.01,SSE,168,3.0,9.0,69,0.00,,CLR,0.00,VWS V14.00,2013-12-13 12:14:00,
2013-12-13 07:19:00,16.1,7.7,30.00,South,181,5.0,9.0,69,0.00,,CLR,0.00,VWS V14.00,2013-12-13 12:19:00,
2013-12-13 07:24:00,16.2,7.8,30.01,SW,231,1.0,9.0,69,0.00,,CLR,0.00,VWS V14.00,2013-12-13 12:24:00,
2013-12-13 07:29:00,16.4,7.7,30.01,WSW,238,2.0,9.0,68,0.00,,CLR,0.00,VWS V14.00,2013-12-13 12:29:00,
2013-12-13 07:34:00,16.5,7.8,30.01,SW,220,6.0,7.0,68,0.00,,CLR,0.00,VWS V14.00,2013-12-13 12:34:00,
2013-12-13 07:39:00,16.7,8.0,30.01,SW,222,1.0,7.0,68,0.00,,CLR,0.00,VWS V14.00,2013-12-13 12:39:00,
2013-12-13 07:44:00,16.9,8.2,30.02,SW,220,1.0,7.0,68,0.00,,CLR,0.00,VWS V14.00,2013-12-13 12:44:00,
2013-12-13 07:49:00,17.2,8.5,30.02,SW,229,5.0,8.0,68,0.00,,CLR,0.00,VWS V14.00,2013-12-13 12:49:00,
2013-12-13 07:54:00,17.3,8.2,30.02,SW,215,2.0,9.0,67,0.00,,CLR,0.00,VWS V14.00,2013-12-13 12:54:00,
2013-12-13 07:59:00,17.5,8.8,30.02,SW,218,5.0,9.0,68,0.00,,CLR,0.00,VWS V14.00,2013-12-13 12:59:00,
2013-12-13 08:04:00,17.6,8.5,30.02,WSW,244,5.0,8.0,67,0.00,,SCT070,0.00,VWS V14.00,2013-12-13 13:04:00,
2013-12-13 08:09:00,17.8,8.7,30.02,WNW,283,3.0,9.0,67,0.00,,SCT070,0.00,VWS V14.00,2013-12-13 13:09:00,
2013-12-13 08:14:00,17.8,8.7,30.02,WSW,247,1.0,10.0,67,0.00,,SCT070,0.00,VWS V14.00,2013-12-13 13:14:00,
2013-12-13 08:19:00,17.8,8.4,30.01,South,182,2.0,10.0,66,0.00,,SCT070,0.00,VWS V14.00,2013-12-13 13:19:00,
2013-12-13 08:24:00,17.8,8.7,30.02,SSW,198,3.0,10.0,67,0.00,,SCT070,0.00,VWS V14.00,2013-12-13 13:24:00,
2013-12-13 08:29:00,17.8,8.7,30.02,WSW,252,1.0,10.0,67,0.00,,SCT070,0.00,VWS V14.00,2013-12-13 13:29:00,
2013-12-13 08:34:00,18.1,9.0,30.03,WSW,255,1.0,6.0,67,0.00,,SCT070,0.00,VWS V14.00,2013-12-13 13:34:00,
2013-12-13 08:39:00,18.3,9.2,30.03,WSW,251,5.0,7.0,67,0.00,,SCT070,0.00,VWS V14.00,2013-12-13 13:39:00,
2013-12-13 08:44:00,18.6,9.1,30.03,SSW,208,5.0,7.0,66,0.00,,SCT070,0.00,VWS V14.00,2013-12-13 13:44:00,
2013-12-13 08:49:00,18.7,9.2,30.03,SW,230,2.0,9.0,66,0.00,,SCT070,0.00,VWS V14.00,2013-12-13 13:49:00,
2013-12-13 08:54:00,19.0,9.5,30.03,West,267,3.0,9.0,66,0.00,,SCT070,0.00,VWS V14.00,2013-12-13 13:54:00,
2013-12-13 08:59:00,19.2,9.7,30.03,WSW,246,5.0,9.0,66,0.00,,SCT070,0.00,VWS V14.00,2013-12-13 13:59:00,
2013-12-13 09:04:00,19.4,9.9,30.04,South,180,3.0,7.0,66,0.00,,CLR,0.00,VWS V14.00,2013-12-13 14:04:00,
2013-12-13 09:09:00,19.5,9.7,30.04,WSW,256,2.0,8.0,65,0.00,,CLR,0.00,VWS V14.00,2013-12-13 14:09:00,
2013-12-13 09:14:00,19.8,9.9,30.04,NW,315,5.0,8.0,65,0.00,,CLR,0.00,VWS V14.00,2013-12-13 14:14:00,
2013-12-13 09:19:00,20.0,10.1,30.04,SW,218,6.0,8.0,65,0.00,,CLR,0.00,VWS V14.00,2013-12-13 14:19:00,
2013-12-13 09:24:00,20.4,10.5,30.04,SW,222,3.0,8.0,65,0.00,,CLR,0.00,VWS V14.00,2013-12-13 14:24:00,
2013-12-13 09:29:00,20.6,10.7,30.04,SW,222,3.0,8.0,65,0.00,,CLR,0.00,VWS V14.00,2013-12-13 14:29:00,
2013-12-13 09:34:00,20.8,10.6,30.05,SW,226,6.0,6.0,64,0.00,,CLR,0.00,VWS V14.00,2013-12-13 14:34:00,
2013-12-13 09:39:00,21.0,10.8,30.05,NW,310,4.0,7.0,64,0.00,,CLR,0.00,VWS V14.00,2013-12-13 14:39:00,
2013-12-13 09:44:00,21.3,11.0,30.05,West,277,2.0,8.0,64,0.00,,CLR,0.00,VWS V14.00,2013-12-13 14:44:00,
2013-12-13 09:49:00,21.6,11.3,30.05,West,280,2.0,8.0,64,0.00,,CLR,0.00,VWS V14.00,2013-12-13 14:49:00,
2013-12-13 09:54:00,22.0,11.7,30.05,NNW,329,3.0,8.0,64,0.00,,CLR,0.00,VWS V14.00,2013-12-13 14:54:00,
2013-12-13 09:59:00,22.2,11.5,30.04,WSW,240,1.0,9.0,63,0.00,,CLR,0.00,VWS V14.00,2013-12-13 14:59:00,
2013-12-13 10:04:00,22.7,12.0,30.05,WSW,247,3.0,6.0,63,0.00,,SCT270,0.00,VWS V14.00,2013-12-13 15:04:00,
2013-12-13 10:09:00,22.8,12.1,30.04,WNW,283,0.0,7.0,63,0.00,,SCT270,0.00,VWS V14.00,2013-12-13 15:09:00,
2013-12-13 10:14:00,23.0,11.9,30.05,West,261,3.0,7.0,62,0.00,,SCT270,0.00,VWS V14.00,2013-12-13 15:14:00,
2013-12-13 10:19:00,23.1,12.0,30.04,WSW,241,3.0,8.0,62,0.00,,SCT270,0.00,VWS V14.00,2013-12-13 15:19:00,
2013-12-13 10:24:00,23.3,12.2,30.04,WSW,237,2.0,8.0,62,0.00,,SCT270,0.00,VWS V14.00,2013-12-13 15:24:00,
2013-12-13 10:29:00,23.6,12.5,30.04,WSW,244,3.0,8.0,62,0.00,,SCT270,0.00,VWS V14.00,2013-12-13 15:29:00,
2013-12-13 10:34:00,24.1,13.0,30.04,WNW,292,0.0,4.0,62,0.00,,SCT270,0.00,VWS V14.00,2013-12-13 15:34:00,
2013-12-13 10:39:00,24.7,13.2,30.04,WNW,298,1.0,9.0,61,0.00,,SCT270,0.00,VWS V14.00,2013-12-13 15:39:00,
2013-12-13 10:44:00,25.1,13.6,30.03,West,267,2.0,9.0,61,0.00,,SCT270,0.00,VWS V14.00,2013-12-13 15:44:00,
2013-12-13 10:49:00,25.2,13.3,30.03,West,277,3.0,9.0,60,0.00,,SCT270,0.00,VWS V14.00,2013-12-13 15:49:00,
2013-12-13 10:54:00,25.3,13.4,30.03,West,264,2.0,9.0,60,0.00,,SCT270,0.00,VWS V14.00,2013-12-13 15:54:00,
2013-12-13 10:59:00,25.8,13.9,30.03,SW,233,1.0,9.0,60,0.00,,SCT270,0.00,VWS V14.00,2013-12-13 15:59:00,
2013-12-13 11:04:00,26.2,14.2,30.03,West,273,0.0,5.0,60,0.00,,BKN050,0.00,VWS V14.00,2013-12-13 16:04:00,
2013-12-13 11:09:00,26.3,13.9,30.03,West,268,3.0,10.0,59,0.00,,BKN050,0.00,VWS V14.00,2013-12-13 16:09:00,
2013-12-13 11:14:00,25.9,13.2,30.03,SSW,213,2.0,10.0,58,0.00,,BKN050,0.00,VWS V14.00,2013-12-13 16:14:00,
2013-12-13 11:19:00,25.8,13.5,30.03,NNE,28,4.0,10.0,59,0.00,,BKN050,0.00,VWS V14.00,2013-12-13 16:19:00,
2013-12-13 11:24:00,25.8,13.1,30.02,ENE,69,5.0,10.0,58,0.00,,BKN050,0.00,VWS V14.00,2013-12-13 16:24:00,
2013-12-13 11:29:00,25.8,13.5,30.02,WNW,287,4.0,11.0,59,0.00,,BKN050,0.00,VWS V14.00,2013-12-13 16:29:00,
2013-12-13 11:33:00,25.6,12.5,30.02,NW,307,8.0,10.0,57,0.00,,BKN050,0.00,VWS V14.00,2013-12-13 16:33:00,
2013-12-13 11:38:00,25.5,13.2,30.02,West,277,4.0,10.0,59,0.00,,BKN050,0.00,VWS V14.00,2013-12-13 16:38:00,
2013-12-13 11:43:00,25.6,13.3,30.02,NW,312,3.0,16.0,59,0.00,,BKN050,0.00,VWS V14.00,2013-12-13 16:43:00,
2013-12-13 11:48:00,25.9,13.2,30.02,NW,316,1.0,16.0,58,0.00,,BKN050,0.00,VWS V14.00,2013-12-13 16:48:00,
2013-12-13 11:53:00,26.6,13.4,30.02,SW,233,4.0,16.0,57,0.00,,BKN050,0.00,VWS V14.00,2013-12-13 16:53:00,
2013-12-13 11:58:00,26.4,13.2,30.02,West,274,2.0,16.0,57,0.00,,BKN050,0.00,VWS V14.00,2013-12-13 16:58:00,
2013-12-13 12:03:00,26.6,13.8,30.01,NW,312,3.0,5.0,58,0.00,,BKN049,0.00,VWS V14.00,2013-12-13 17:03:00,
2013-12-13 12:08:00,26.7,13.9,30.01,SW,215,3.0,8.0,58,0.00,,BKN049,0.00,VWS V14.00,2013-12-13 17:08:00,
2013-12-13 12:13:00,26.5,13.7,30.01,WNW,297,2.0,11.0,58,0.00,,BKN049,0.00,VWS V14.00,2013-12-13 17:13:00,
2013-12-13 12:18:00,26.6,14.2,30.01,SW,224,7.0,11.0,59,0.00,,BKN049,0.00,VWS V14.00,2013-12-13 17:18:00,
2013-12-13 12:23:00,26.4,14.0,30.01,SW,234,6.0,11.0,59,0.00,,BKN049,0.00,VWS V14.00,2013-12-13 17:23:00,
2013-12-13 12:28:00,26.5,14.1,30.02,West,261,0.0,11.0,59,0.00,,BKN049,0.00,VWS V14.00,2013-12-13 17:28:00,
2013-12-13 12:33:00,26.9,14.5,30.01,WNW,283,5.0,18.0,59,0.00,,BKN049,0.00,VWS V14.00,2013-12-13 17:33:00,
2013-12-13 12:38:00,26.7,14.3,30.02,North,355,3.0,18.0,59,0.00,,BKN049,0.00,VWS V14.00,2013-12-13 17:38:00,
2013-12-13 12:43:00,26.7,14.7,30.02,WSW,247,1.0,18.0,60,0.00,,BKN049,0.00,VWS V14.00,2013-12-13 17:43:00,
2013-12-13 12:48:00,26.5,14.5,30.02,SW,236,4.0,18.0,60,0.00,,BKN049,0.00,VWS V14.00,2013-12-13 17:48:00,
2013-12-13 12:53:00,26.5,14.9,30.01,NW,314,2.0,18.0,61,0.00,,BKN049,0.00,VWS V14.00,2013-12-13 17:53:00,
2013-12-13 12:58:00,26.5,14.9,30.02,NW,322,8.0,18.0,61,0.00,,BKN049,0.00,VWS V14.00,2013-12-13 17:58:00,
2013-12-13 13:03:00,26.6,15.0,30.02,North,355,2.0,9.0,61,0.00,,BKN047,0.00,VWS V14.00,2013-12-13 18:03:00,
2013-12-13 13:08:00,26.8,14.8,30.02,SW,235,3.0,10.0,60,0.00,,BKN047,0.00,VWS V14.00,2013-12-13 18:08:00,
2013-12-13 13:13:00,27.0,15.0,30.02,WSW,250,3.0,10.0,60,0.00,,BKN047,0.00,VWS V14.00,2013-12-13 18:13:00,
2013-12-13 13:18:00,27.1,15.1,30.01,WNW,302,3.0,10.0,60,0.00,,BKN047,0.00,VWS V14.00,2013-12-13 18:18:00,
2013-12-13 13:23:00,27.3,15.3,30.01,East,101,1.0,10.0,60,0.00,,BKN047,0.00,VWS V14.00,2013-12-13 18:23:00,
2013-12-13 13:28:00,27.4,15.4,30.01,WNW,290,3.0,10.0,60,0.00,,BKN047,0.00,VWS V14.00,2013-12-13 18:28:00,
2013-12-13 13:33:00,27.7,15.6,30.02,West,263,1.0,5.0,60,0.00,,BKN047,0.00,VWS V14.00,2013-12-13 18:33:00,
2013-12-13 13:38:00,27.3,15.3,30.02,West,275,4.0,7.0,60,0.00,,BKN047,0.00,VWS V14.00,2013-12-13 18:38:00,
2013-12-13 13:43:00,27.0,15.0,30.02,NE,40,2.0,7.0,60,0.00,,BKN047,0.00,VWS V14.00,2013-12-13 18:43:00,
2013-12-13 13:48:00,26.8,14.8,30.02,WSW,241,3.0,10.0,60,0.00,,BKN047,0.00,VWS V14.00,2013-12-13 18:48:00,
2013-12-13 13:53:00,26.7,15.1,30.02,SW,231,4.0,10.0,61,0.00,,BKN047,0.00,VWS V14.00,2013-12-13 18:53:00,
2013-12-13 13:58:00,26.7,15.4,30.02,WNW,283,3.0,10.0,62,0.00,,BKN047,0.00,VWS V14.00,2013-12-13 18:58:00,
2013-12-13 14:03:00,26.6,15.0,30.02,WSW,249,1.0,5.0,61,0.00,,BKN055,0.00,VWS V14.00,2013-12-13 19:03:00,
2013-12-13 14:08:00,26.6,15.4,30.03,WSW,239,2.0,8.0,62,0.00,,BKN055,0.00,VWS V14.00,2013-12-13 19:08:00,
2013-12-13 14:13:00,26.2,15.0,30.03,WNW,291,1.0,8.0,62,0.00,,BKN055,0.00,VWS V14.00,2013-12-13 19:13:00,
2013-12-13 14:18:00,26.1,14.9,30.03,WNW,283,4.0,13.0,62,0.00,,BKN055,0.00,VWS V14.00,2013-12-13 19:18:00,
2013-12-13 14:23:00,25.9,15.1,30.03,North,359,2.0,13.0,63,0.00,,BKN055,0.00,VWS V14.00,2013-12-13 19:23:00,
2013-12-13 14:28:00,25.9,15.1,30.04,NW,307,4.0,13.0,63,0.00,,BKN055,0.00,VWS V14.00,2013-12-13 19:28:00,
2013-12-13 14:33:00,25.8,15.0,30.04,SW,225,2.0,7.0,63,0.00,,BKN055,0.00,VWS V14.00,2013-12-13 19:33:00,
2013-12-13 14:38:00,25.8,15.3,30.04,SW,214,2.0,7.0,64,0.00,,BKN055,0.00,VWS V14.00,2013-12-13 19:38:00,
2013-12-13 14:43:00,25.9,15.8,30.05,SW,226,3.0,7.0,65,0.00,,BKN055,0.00,VWS V14.00,2013-12-13 19:43:00,
2013-12-13 14:48:00,26.1,15.6,30.05,NNW,334,2.0,9.0,64,0.00,,BKN055,0.00,VWS V14.00,2013-12-13 19:48:00,
2013-12-13 14:53:00,26.2,15.7,30.05,NNW,338,4.0,10.0,64,0.00,,BKN055,0.00,VWS V14.00,2013-12-13 19:53:00,
2013-12-13 14:58:00,26.4,15.5,30.05,WNW,300,5.0,12.0,63,0.00,,BKN055,0.00,VWS V14.00,2013-12-13 19:58:00,
2013-12-13 15:03:00,26.4,15.9,30.05,WSW,256,2.0,8.0,64,0.00,,BKN060,0.00,VWS V14.00,2013-12-13 20:03:00,
2013-12-13 15:08:00,26.2,15.7,30.06,West,267,4.0,8.0,64,0.00,,BKN060,0.00,VWS V14.00,2013-12-13 20:08:00,
2013-12-13 15:13:00,25.9,15.4,30.06,SW,217,1.0,14.0,64,0.00,,BKN060,0.00,VWS V14.00,2013-12-13 20:13:00,
2013-12-13 15:18:00,25.9,15.4,30.06,NNW,338,1.0,14.0,64,0.00,,BKN060,0.00,VWS V14.00,2013-12-13 20:18:00,
2013-12-13 15:23:00,25.8,15.7,30.07,NW,308,0.0,14.0,65,0.00,,BKN060,0.00,VWS V14.00,2013-12-13 20:23:00,
2013-12-13 15:28:00,25.8,15.7,30.07,North,351,2.0,14.0,65,0.00,,BKN060,0.00,VWS V14.00,2013-12-13 20:28:00,
2013-12-13 15:33:00,25.8,15.3,30.08,NW,312,1.0,8.0,64,0.00,,BKN060,0.00,VWS V14.00,2013-12-13 20:33:00,
2013-12-13 15:38:00,25.8,15.3,30.07,WNW,295,1.0,9.0,64,0.00,,BKN060,0.00,VWS V14.00,2013-12-13 20:38:00,
2013-12-13 15:43:00,25.8,15.7,30.08,NW,321,2.0,9.0,65,0.00,,BKN060,0.00,VWS V14.00,2013-12-13 20:43:00,
2013-12-13 15:48:00,25.8,15.7,30.09,WNW,298,2.0,9.0,65,0.00,,BKN060,0.00,VWS V14.00,2013-12-13 20:48:00,
2013-12-13 15:53:00,25.6,15.5,30.09,NW,320,1.0,9.0,65,0.00,,BKN060,0.00,VWS V14.00,2013-12-13 20:53:00,
2013-12-13 15:58:00,25.7,15.6,30.10,NNW,340,2.0,9.0,65,0.00,,BKN060,0.00,VWS V14.00,2013-12-13 20:58:00,
2013-12-13 16:03:00,25.6,15.8,30.10,WNW,301,2.0,9.0,66,0.00,,OVC070,0.00,VWS V14.00,2013-12-13 21:03:00,
2013-12-13 16:08:00,25.5,16.1,30.10,North,1,3.0,9.0,67,0.00,,OVC070,0.00,VWS V14.00,2013-12-13 21:08:00,
2013-12-13 16:13:00,25.5,16.1,30.10,NNW,330,3.0,11.0,67,0.00,,OVC070,0.00,VWS V14.00,2013-12-13 21:13:00,
2013-12-13 16:18:00,25.3,16.2,30.11,WNW,287,3.0,11.0,68,0.00,,OVC070,0.00,VWS V14.00,2013-12-13 21:18:00,
2013-12-13 16:23:00,25.2,16.1,30.11,WNW,299,4.0,11.0,68,0.00,,OVC070,0.00,VWS V14.00,2013-12-13 21:23:00,
2013-12-13 16:28:00,25.1,16.0,30.11,WNW,299,2.0,11.0,68,0.00,,OVC070,0.00,VWS V14.00,2013-12-13 21:28:00,
2013-12-13 16:33:00,25.0,15.9,30.12,North,350,4.0,8.0,68,0.00,,OVC070,0.00,VWS V14.00,2013-12-13 21:33:00,
2013-12-13 16:38:00,24.9,15.9,30.12,NNW,328,1.0,8.0,68,0.00,,OVC070,0.00,VWS V14.00,2013-12-13 21:38:00,
2013-12-13 16:43:00,24.8,16.1,30.12,WNW,300,3.0,8.0,69,0.00,,OVC070,0.00,VWS V14.00,2013-12-13 21:43:00,
2013-12-13 16:48:00,24.6,16.2,30.12,North,356,2.0,8.0,70,0.00,,OVC070,0.00,VWS V14.00,2013-12-13 21:48:00,
2013-12-13 16:53:00,24.6,16.2,30.13,North,0,1.0,8.0,70,0.00,,OVC070,0.00,VWS V14.00,2013-12-13 21:53:00,
2013-12-13 16:58:00,24.5,16.5,30.13,WNW,298,1.0,8.0,71,0.00,,OVC070,0.00,VWS V14.00,2013-12-13 21:58:00,
2013-12-13 17:03:00,24.3,16.3,30.13,NNW,333,4.0,7.0,71,0.00,,BKN070,0.00,VWS V14.00,2013-12-13 22:03:00,
2013-12-13 17:08:00,24.3,16.3,30.14,NNW,339,5.0,7.0,71,0.00,,BKN070,0.00,VWS V14.00,2013-12-13 22:08:00,
2013-12-13 17:13:00,24.2,16.2,30.14,NW,314,5.0,7.0,71,0.00,,BKN070,0.00,VWS V14.00,2013-12-13 22:13:00,
2013-12-13 17:18:00,24.0,16.3,30.14,North,359,2.0,8.0,72,0.00,,BKN070,0.00,VWS V14.00,2013-12-13 22:18:00,
2013-12-13 17:23:00,24.0,16.3,30.14,NW,317,5.0,8.0,72,0.00,,BKN070,0.00,VWS V14.00,2013-12-13 22:23:00,
2013-12-13 17:28:00,23.8,16.1,30.14,NW,321,2.0,8.0,72,0.00,,BKN070,0.00,VWS V14.00,2013-12-13 22:28:00,
2013-12-13 17:33:00,23.7,16.0,30.15,NNW,328,2.0,8.0,72,0.00,,BKN070,0.00,VWS V14.00,2013-12-13 22:33:00,
2013-12-13 17:38:00,23.7,16.0,30.16,NW,306,2.0,8.0,72,0.00,,BKN070,0.00,VWS V14.00,2013-12-13 22:38:00,
2013-12-13 17:43:00,23.7,16.0,30.16,North,1,3.0,10.0,72,0.00,,BKN070,0.00,VWS V14.00,2013-12-13 22:43:00,
2013-12-13 17:48:00,23.7,15.7,30.16,NW,316,1.0,12.0,71,0.00,,BKN070,0.00,VWS V14.00,2013-12-13 22:48:00,
2013-12-13 17:53:00,23.7,15.7,30.17,NNW,327,1.0,12.0,71,0.00,,BKN070,0.00,VWS V14.00,2013-12-13 22:53:00,
2013-12-13 17:58:00,23.7,15.4,30.17,NNW,334,5.0,12.0,70,0.00,,BKN070,0.00,VWS V14.00,2013-12-13 22:58:00,
2013-12-13 18:03:00,23.7,15.0,30.17,NNE,13,5.0,6.0,69,0.00,,BKN070,0.00,VWS V14.00,2013-12-13 23:03:00,
2013-12-13 18:08:00,23.7,14.7,30.17,NNW,345,1.0,10.0,68,0.00,,BKN070,0.00,VWS V14.00,2013-12-13 23:08:00,
2013-12-13 18:13:00,23.6,14.3,30.17,North,349,1.0,10.0,67,0.00,,BKN070,0.00,VWS V14.00,2013-12-13 23:13:00,
2013-12-13 18:18:00,23.6,14.3,30.18,North,349,1.0,10.0,67,0.00,,BKN070,0.00,VWS V14.00,2013-12-13 23:18:00,
2013-12-13 18:23:00,23.3,14.0,30.18,NNW,348,0.0,10.0,67,0.00,,BKN070,0.00,VWS V14.00,2013-12-13 23:23:00,
2013-12-13 18:28:00,23.1,13.8,30.18,NNW,333,1.0,10.0,67,0.00,,BKN070,0.00,VWS V14.00,2013-12-13 23:28:00,
2013-12-13 18:33:00,23.0,13.7,30.19,NNW,333,1.0,6.0,67,0.00,,BKN070,0.00,VWS V14.00,2013-12-13 23:33:00,
2013-12-13 18:38:00,22.7,13.4,30.19,NNW,333,0.0,6.0,67,0.00,,BKN070,0.00,VWS V14.00,2013-12-13 23:38:00,
2013-12-13 18:43:00,22.5,13.6,30.20,NNW,333,1.0,6.0,68,0.00,,BKN070,0.00,VWS V14.00,2013-12-13 23:43:00,
2013-12-13 18:48:00,22.2,13.3,30.20,NNW,333,0.0,6.0,68,0.00,,BKN070,0.00,VWS V14.00,2013-12-13 23:48:00,
2013-12-13 18:53:00,21.9,13.3,30.20,NNW,333,0.0,6.0,69,0.00,,BKN070,0.00,VWS V14.00,2013-12-13 23:53:00,
2013-12-13 18:58:00,21.6,13.0,30.21,NNW,333,0.0,6.0,69,0.00,,BKN070,0.00,VWS V14.00,2013-12-13 23:58:00,
2013-12-13 19:03:00,21.5,12.9,30.21,NNW,333,2.0,4.0,69,0.00,,CLR,0.00,VWS V14.00,2013-12-14 00:03:00,
2013-12-13 19:08:00,21.3,12.7,30.22,NNW,333,1.0,6.0,69,0.00,,CLR,0.00,VWS V14.00,2013-12-14 00:08:00,
2013-12-13 19:13:00,21.2,13.0,30.22,NW,323,1.0,6.0,70,0.00,,CLR,0.00,VWS V14.00,2013-12-14 00:13:00,
2013-12-13 19:18:00,21.3,13.1,30.22,NW,325,1.0,6.0,70,0.00,,CLR,0.00,VWS V14.00,2013-12-14 00:18:00,
2013-12-13 19:23:00,21.2,13.0,30.22,NW,325,2.0,6.0,70,0.00,,CLR,0.00,VWS V14.00,2013-12-14 00:23:00,
2013-12-13 19:28:00,21.3,13.1,30.22,NNW,346,2.0,7.0,70,0.00,,CLR,0.00,VWS V14.00,2013-12-14 00:28:00,
2013-12-13 19:33:00,21.3,13.1,30.23,NNW,346,0.0,3.0,70,0.00,,CLR,0.00,VWS V14.00,2013-12-14 00:33:00,
2013-12-13 19:38:00,21.2,13.3,30.23,NNW,346,2.0,4.0,71,0.00,,CLR,0.00,VWS V14.00,2013-12-14 00:38:00,
2013-12-13 19:43:00,21.2,13.3,30.23,NNW,346,1.0,4.0,71,0.00,,CLR,0.00,VWS V14.00,2013-12-14 00:43:00,
2013-12-13 19:48:00,21.0,13.1,30.23,NNW,346,1.0,4.0,71,0.00,,CLR,0.00,VWS V14.00,2013-12-14 00:48:00,
2013-12-13 19:53:00,20.7,13.1,30.24,North,351,2.0,4.0,72,0.00,,CLR,0.00,VWS V14.00,2013-12-14 00:53:00,
2013-12-13 19:58:00,20.7,13.4,30.24,North,352,0.0,4.0,73,0.00,,CLR,0.00,VWS V14.00,2013-12-14 00:58:00,
2013-12-13 20:03:00,20.4,13.1,30.25,North,352,1.0,3.0,73,0.00,,CLR,0.00,VWS V14.00,2013-12-14 01:03:00,
2013-12-13 20:08:00,20.0,12.8,30.25,North,352,2.0,3.0,73,0.00,,CLR,0.00,VWS V14.00,2013-12-14 01:08:00,
2013-12-13 20:13:00,19.8,13.2,30.25,North,355,2.0,3.0,75,0.00,,CLR,0.00,VWS V14.00,2013-12-14 01:13:00,
2013-12-13 20:18:00,19.7,12.8,30.25,North,355,0.0,3.0,74,0.00,,CLR,0.00,VWS V14.00,2013-12-14 01:18:00,
2013-12-13 20:23:00,19.5,12.9,30.25,North,354,4.0,4.0,75,0.00,,CLR,0.00,VWS V14.00,2013-12-14 01:23:00,
2013-12-13 20:28:00,19.4,12.8,30.25,NNW,340,1.0,5.0,75,0.00,,CLR,0.00,VWS V14.00,2013-12-14 01:28:00,
2013-12-13 20:33:00,19.2,12.9,30.26,NNW,340,0.0,2.0,76,0.00,,CLR,0.00,VWS V14.00,2013-12-14 01:33:00,
2013-12-13 20:38:00,19.1,13.1,30.26,NNW,340,0.0,2.0,77,0.00,,CLR,0.00,VWS V14.00,2013-12-14 01:38:00,
2013-12-13 20:43:00,19.1,12.8,30.26,NNW,340,0.0,2.0,76,0.00,,CLR,0.00,VWS V14.00,2013-12-14 01:43:00,
2013-12-13 20:48:00,18.9,12.9,30.27,NNW,340,0.0,2.0,77,0.00,,CLR,0.00,VWS V14.00,2013-12-14 01:48:00,
2013-12-13 20:53:00,18.6,12.3,30.27,NNW,340,0.0,2.0,76,0.00,,CLR,0.00,VWS V14.00,2013-12-14 01:53:00,
2013-12-13 20:58:00,18.3,12.3,30.27,NNW,340,0.0,2.0,77,0.00,,CLR,0.00,VWS V14.00,2013-12-14 01:58:00,
2013-12-13 21:03:00,18.1,12.1,30.27,NNW,340,0.0,0.0,77,0.00,,CLR,0.00,VWS V14.00,2013-12-14 02:03:00,
2013-12-13 21:08:00,17.8,11.8,30.28,NNW,340,0.0,0.0,77,0.00,,CLR,0.00,VWS V14.00,2013-12-14 02:08:00,
2013-12-13 21:13:00,17.8,12.1,30.27,NNW,339,0.0,2.0,78,0.00,,CLR,0.00,VWS V14.00,2013-12-14 02:13:00,
2013-12-13 21:18:00,17.8,12.1,30.27,NNW,339,0.0,3.0,78,0.00,,CLR,0.00,VWS V14.00,2013-12-14 02:18:00,
2013-12-13 21:23:00,17.8,12.1,30.29,NNW,339,0.0,3.0,78,0.00,,CLR,0.00,VWS V14.00,2013-12-14 02:23:00,
2013-12-13 21:28:00,17.8,12.1,30.29,NNW,339,0.0,3.0,78,0.00,,CLR,0.00,VWS V14.00,2013-12-14 02:28:00,
2013-12-13 21:33:00,17.8,12.1,30.29,NNW,340,1.0,4.0,78,0.00,,CLR,0.00,VWS V14.00,2013-12-14 02:33:00,
2013-12-13 21:38:00,17.8,12.1,30.29,NNW,340,0.0,4.0,78,0.00,,CLR,0.00,VWS V14.00,2013-12-14 02:38:00,
2013-12-13 21:43:00,17.8,12.1,30.29,NNW,340,3.0,4.0,78,0.00,,CLR,0.00,VWS V14.00,2013-12-14 02:43:00,
2013-12-13 21:48:00,17.5,11.8,30.29,NNW,340,0.0,4.0,78,0.00,,CLR,0.00,VWS V14.00,2013-12-14 02:48:00,
2013-12-13 21:53:00,17.5,11.8,30.30,NNW,342,2.0,4.0,78,0.00,,CLR,0.00,VWS V14.00,2013-12-14 02:53:00,
2013-12-13 21:58:00,17.5,11.8,30.29,NNW,348,0.0,4.0,78,0.00,,CLR,0.00,VWS V14.00,2013-12-14 02:58:00,
2013-12-13 22:03:00,17.6,11.9,30.30,NNW,348,0.0,0.0,78,0.00,,CLR,0.00,VWS V14.00,2013-12-14 03:03:00,
2013-12-13 22:08:00,17.5,11.5,30.30,NNW,348,0.0,2.0,77,0.00,,CLR,0.00,VWS V14.00,2013-12-14 03:08:00,
2013-12-13 22:13:00,17.5,11.8,30.31,NNW,348,0.0,2.0,78,0.00,,CLR,0.00,VWS V14.00,2013-12-14 03:13:00,
2013-12-13 22:18:00,17.3,11.3,30.31,NNW,348,0.0,2.0,77,0.00,,CLR,0.00,VWS V14.00,2013-12-14 03:18:00,
2013-12-13 22:23:00,17.2,11.2,30.32,NNW,348,0.0,2.0,77,0.00,,CLR,0.00,VWS V14.00,2013-12-14 03:23:00,
2013-12-13 22:28:00,17.0,11.1,30.32,NNE,17,2.0,4.0,77,0.00,,CLR,0.00,VWS V14.00,2013-12-14 03:28:00,
2013-12-13 22:33:00,16.8,10.9,30.33,NNE,17,1.0,1.0,77,0.00,,CLR,0.00,VWS V14.00,2013-12-14 03:33:00,
2013-12-13 22:38:00,16.5,10.6,30.33,NNE,32,3.0,5.0,77,0.00,,CLR,0.00,VWS V14.00,2013-12-14 03:38:00,
2013-12-13 22:43:00,16.4,10.5,30.33,NNE,12,2.0,6.0,77,0.00,,CLR,0.00,VWS V14.00,2013-12-14 03:43:00,
2013-12-13 22:48:00,16.0,10.1,30.34,NNE,16,1.0,6.0,77,0.00,,CLR,0.00,VWS V14.00,2013-12-14 03:48:00,
2013-12-13 22:53:00,15.7,9.8,30.34,NNE,17,3.0,6.0,77,0.00,,CLR,0.00,VWS V14.00,2013-12-14 03:53:00,
2013-12-13 22:58:00,15.3,8.8,30.34,NNE,27,1.0,6.0,75,0.00,,CLR,0.00,VWS V14.00,2013-12-14 03:58:00,
2013-12-13 23:03:00,15.2,8.7,30.35,NNE,27,2.0,6.0,75,0.00,,CLR,0.00,VWS V14.00,2013-12-14 04:03:00,
2013-12-13 23:08:00,14.6,7.8,30.35,NNE,17,6.0,6.0,74,0.00,,OVC035,0.00,VWS V14.00,2013-12-14 04:08:00,
2013-12-13 23:13:00,14.2,7.4,30.35,NNE,19,2.0,6.0,74,0.00,,OVC035,0.00,VWS V14.00,2013-12-14 04:13:00,
2013-12-13 23:18:00,14.1,7.3,30.36,NNE,23,5.0,6.0,74,0.00,,OVC035,0.00,VWS V14.00,2013-12-14 04:18:00,
2013-12-13 23:23:00,13.8,6.8,30.36,NNE,21,3.0,6.0,73,0.00,,OVC035,0.00,VWS V14.00,2013-12-14 04:23:00,
2013-12-13 23:28:00,13.4,6.4,30.36,North,10,2.0,6.0,73,0.00,,OVC035,0.00,VWS V14.00,2013-12-14 04:28:00,
2013-12-13 23:33:00,13.3,6.3,30.36,North,359,4.0,5.0,73,0.00,,OVC035,0.00,VWS V14.00,2013-12-14 04:33:00,
2013-12-13 23:38:00,13.1,6.1,30.36,North,0,1.0,5.0,73,0.00,,OVC035,0.00,VWS V14.00,2013-12-14 04:38:00,
2013-12-13 23:43:00,12.8,5.5,30.37,NNE,32,4.0,5.0,72,0.00,,OVC035,0.00,VWS V14.00,2013-12-14 04:43:00,
2013-12-13 23:48:00,12.6,5.0,30.37,NE,43,1.0,5.0,71,0.00,,OVC035,0.00,VWS V14.00,2013-12-14 04:48:00,
2013-12-13 23:53:00,12.3,4.7,30.37,NNE,28,1.0,8.0,71,0.00,,OVC035,0.00,VWS V14.00,2013-12-14 04:53:00,
2013-12-13 23:58:00,12.1,4.2,30.37,North,0,1.0,8.0,70,0.00,,OVC035,0.00,VWS V14.00,2013-12-14 04:58:00,